Time;durP1;ratioP1;P1;durP2;ratioP2;P2;SDS_P1;SDS_P2;PMS_P1;PMS_P2;Temp;Humidity;BMP_temperature;BMP_pressure;BME280_temperature;BME280_humidity;BME280_pressure;Samples;Min_cycle;Max_cycle;Signal;HPM_P1;HPM_P2
2023/07/16 00:00:27;;;;;;;1.50;1.20;;;16.30;99.90;;;;;;2088443;28;20228;-84
2023/07/16 00:01:28;;;;;;;1.13;1.03;;;16.30;99.90;;;;;;2091387;28;20543;-85
2023/07/16 00:02:28;;;;;;;1.13;1.03;;;16.20;99.90;;;;;;2086802;28;20283;-85
2023/07/16 00:03:29;;;;;;;1.97;1.10;;;16.20;99.90;;;;;;2076308;28;20297;-84
2023/07/16 00:04:31;;;;;;;1.13;1.03;;;16.10;99.90;;;;;;2075536;28;20241;-85
2023/07/16 00:05:32;;;;;;;1.20;1.10;;;16.10;99.90;;;;;;2069299;28;20626;-84
2023/07/16 00:06:32;;;;;;;1.00;0.90;;;16.10;99.90;;;;;;2077390;28;20475;-84
2023/07/16 00:07:33;;;;;;;1.10;1.00;;;16.00;99.90;;;;;;2089956;28;20688;-84
2023/07/16 00:08:34;;;;;;;1.90;1.20;;;16.10;99.90;;;;;;2088964;28;20258;-85
2023/07/16 00:09:34;;;;;;;1.93;0.90;;;16.00;99.90;;;;;;2093209;28;20216;-86
2023/07/16 00:10:36;;;;;;;2.27;1.30;;;15.90;99.90;;;;;;2096514;28;20250;-86
2023/07/16 00:11:37;;;;;;;1.60;1.17;;;15.90;99.90;;;;;;2091887;28;20232;-84
2023/07/16 00:12:38;;;;;;;1.43;1.20;;;15.80;99.90;;;;;;2091924;28;20461;-84
2023/07/16 00:13:41;;;;;;;0.83;0.83;;;15.90;99.90;;;;;;2083328;28;20271;-84
2023/07/16 00:14:41;;;;;;;1.20;1.10;;;15.80;99.90;;;;;;2091933;28;20540;-85
2023/07/16 00:15:42;;;;;;;1.30;1.20;;;15.80;99.90;;;;;;2088955;28;20482;-86
2023/07/16 00:16:43;;;;;;;1.57;1.07;;;15.80;99.90;;;;;;2079605;28;20234;-85
2023/07/16 00:17:43;;;;;;;1.43;1.00;;;15.80;99.90;;;;;;2082077;28;20213;-86
2023/07/16 00:18:45;;;;;;;1.23;1.07;;;15.80;99.90;;;;;;2081920;28;20236;-85
2023/07/16 00:19:45;;;;;;;2.33;1.10;;;15.80;99.90;;;;;;2079886;28;20273;-86
2023/07/16 00:20:46;;;;;;;1.10;1.00;;;15.80;99.90;;;;;;2096395;28;20495;-86
2023/07/16 00:21:47;;;;;;;1.30;0.83;;;15.80;99.90;;;;;;2088415;28;20258;-85
2023/07/16 00:22:48;;;;;;;1.20;1.00;;;15.80;99.90;;;;;;2088125;28;20210;-85
2023/07/16 00:23:48;;;;;;;1.20;1.10;;;15.80;99.90;;;;;;2085553;28;20251;-83
2023/07/16 00:24:49;;;;;;;1.77;1.43;;;15.70;99.90;;;;;;2072206;28;20228;-84
2023/07/16 00:25:49;;;;;;;1.20;1.03;;;15.70;99.90;;;;;;2078977;28;20241;-85
2023/07/16 00:26:50;;;;;;;2.03;1.30;;;15.70;99.90;;;;;;2091391;28;20735;-84
2023/07/16 00:27:51;;;;;;;2.10;1.37;;;15.70;99.90;;;;;;2077716;28;20237;-84
2023/07/16 00:28:51;;;;;;;1.20;1.10;;;15.70;99.90;;;;;;2081776;28;20224;-85
2023/07/16 00:29:52;;;;;;;1.37;1.27;;;15.70;99.90;;;;;;2088711;28;20228;-85
2023/07/16 00:30:53;;;;;;;1.30;1.20;;;15.70;99.90;;;;;;2089942;28;20204;-86
2023/07/16 00:31:53;;;;;;;1.73;1.03;;;15.70;99.90;;;;;;2098340;28;20222;-85
2023/07/16 00:32:54;;;;;;;1.33;1.23;;;15.70;99.90;;;;;;2090605;28;20248;-85
2023/07/16 00:33:55;;;;;;;1.33;1.10;;;15.60;99.90;;;;;;2082413;28;20221;-84
2023/07/16 00:34:56;;;;;;;1.83;1.17;;;15.60;99.90;;;;;;2089797;28;20216;-84
2023/07/16 00:35:56;;;;;;;1.03;0.93;;;15.60;99.90;;;;;;2085910;28;20232;-84
2023/07/16 00:37:01;;;;;;;1.83;1.23;;;15.70;99.90;;;;;;2076555;28;20213;-84
2023/07/16 00:38:02;;;;;;;3.97;1.30;;;15.60;99.90;;;;;;2091332;28;20239;-84
2023/07/16 00:39:02;;;;;;;1.03;1.00;;;15.60;99.90;;;;;;2081887;28;20426;-84
2023/07/16 00:40:04;;;;;;;2.07;1.20;;;15.60;99.90;;;;;;2071324;28;20197;-84
2023/07/16 00:41:04;;;;;;;3.57;1.23;;;15.60;99.90;;;;;;2083472;28;20524;-84
2023/07/16 00:42:05;;;;;;;1.30;1.10;;;15.60;99.90;;;;;;2080641;28;20434;-85
2023/07/16 00:43:06;;;;;;;3.13;1.10;;;15.60;99.90;;;;;;2082290;28;20193;-84
2023/07/16 00:44:07;;;;;;;1.67;1.20;;;15.60;99.90;;;;;;2091528;28;20271;-84
2023/07/16 00:45:15;;;;;;;2.30;1.20;;;15.60;99.90;;;;;;2096842;28;20202;-84
2023/07/16 00:46:17;;;;;;;1.57;1.47;;;15.60;99.90;;;;;;2088050;28;20187;-84
2023/07/16 00:47:18;;;;;;;1.20;1.10;;;15.70;99.90;;;;;;2089272;28;20492;-84
2023/07/16 00:48:19;;;;;;;1.30;1.20;;;15.60;99.90;;;;;;2091036;28;20409;-84
2023/07/16 00:49:20;;;;;;;1.50;1.10;;;15.60;99.90;;;;;;2077668;28;20337;-83
2023/07/16 00:50:21;;;;;;;1.20;1.10;;;15.60;99.90;;;;;;2084012;28;20235;-84
2023/07/16 00:51:24;;;;;;;1.70;1.10;;;15.60;99.90;;;;;;2090814;28;21279;-84
2023/07/16 00:52:25;;;;;;;3.03;1.30;;;15.60;99.90;;;;;;2089896;28;20251;-84
2023/07/16 00:53:26;;;;;;;1.30;1.20;;;15.70;99.90;;;;;;2082412;28;20466;-84
2023/07/16 00:54:29;;;;;;;2.03;1.20;;;15.80;99.90;;;;;;2079397;28;20272;-85
2023/07/16 00:55:30;;;;;;;1.50;1.17;;;15.80;99.90;;;;;;2077522;28;20823;-84
2023/07/16 00:56:32;;;;;;;1.50;1.27;;;15.90;99.90;;;;;;2078991;28;20224;-84
2023/07/16 00:57:33;;;;;;;1.33;1.23;;;16.00;99.90;;;;;;2086710;28;20476;-84
2023/07/16 00:58:34;;;;;;;2.97;1.70;;;16.00;99.90;;;;;;2086993;28;20473;-85
2023/07/16 00:59:35;;;;;;;1.53;1.40;;;16.00;99.90;;;;;;2082543;28;20304;-84
2023/07/16 01:00:38;;;;;;;2.07;1.43;;;16.10;99.90;;;;;;2082808;28;20228;-84
2023/07/16 01:01:39;;;;;;;1.57;1.47;;;16.20;99.90;;;;;;2077437;28;20383;-84
2023/07/16 01:02:40;;;;;;;1.60;1.50;;;16.20;99.90;;;;;;2073709;28;20474;-84
2023/07/16 01:03:41;;;;;;;1.90;1.40;;;16.30;99.90;;;;;;2083017;28;20243;-85
2023/07/16 01:04:43;;;;;;;1.97;1.50;;;16.20;99.90;;;;;;2090207;28;20717;-84
2023/07/16 01:06:18;;;;;;;1.80;1.70;;;16.20;99.90;;;;;;2082360;28;20263;-84
2023/07/16 01:07:21;;;;;;;2.03;1.73;;;16.20;99.90;;;;;;2085909;28;20453;-84
2023/07/16 01:08:41;;;;;;;1.90;1.80;;;16.10;99.90;;;;;;2082651;28;20492;-84
2023/07/16 01:09:44;;;;;;;2.33;1.50;;;16.10;99.90;;;;;;2078842;28;20477;-84
2023/07/16 01:10:45;;;;;;;1.70;1.60;;;16.20;99.90;;;;;;2078993;28;20474;-84
2023/07/16 01:11:48;;;;;;;1.93;1.67;;;16.20;99.90;;;;;;2082307;28;20872;-85
2023/07/16 01:12:53;;;;;;;1.77;1.67;;;16.10;99.90;;;;;;2074129;28;20888;-84
2023/07/16 01:13:55;;;;;;;1.67;1.57;;;16.10;99.90;;;;;;2083387;28;20469;-83
2023/07/16 01:14:56;;;;;;;2.37;1.80;;;16.10;99.90;;;;;;2083062;28;20469;-85
2023/07/16 01:15:57;;;;;;;2.80;1.53;;;16.10;99.90;;;;;;2078826;28;20473;-85
2023/07/16 01:16:58;;;;;;;2.27;1.83;;;16.10;99.90;;;;;;2074795;28;20463;-85
2023/07/16 01:18:00;;;;;;;2.20;1.70;;;16.10;99.90;;;;;;2074996;28;20304;-85
2023/07/16 01:19:00;;;;;;;1.87;1.67;;;16.10;99.90;;;;;;2081788;28;20516;-85
2023/07/16 01:20:01;;;;;;;3.33;2.23;;;16.10;99.90;;;;;;2087708;28;20457;-84
2023/07/16 01:21:02;;;;;;;2.00;1.80;;;16.10;99.90;;;;;;2078870;28;20185;-84
2023/07/16 01:22:24;;;;;;;1.60;1.50;;;16.10;99.90;;;;;;2077185;28;20205;-84
2023/07/16 01:23:43;;;;;;;1.77;1.40;;;16.20;99.90;;;;;;2096203;28;20306;-84
2023/07/16 01:25:20;;;;;;;3.70;1.70;;;16.30;99.90;;;;;;2095075;28;20489;-84
2023/07/16 01:26:59;;;;;;;2.27;1.40;;;16.30;99.90;;;;;;2095093;28;20470;-85
2023/07/16 01:28:38;;;;;;;2.73;1.80;;;16.30;99.90;;;;;;2091029;28;20465;-84
2023/07/16 01:30:04;;;;;;;1.73;1.63;;;16.40;99.90;;;;;;2091862;28;20468;-84
2023/07/16 01:31:05;;;;;;;2.73;1.80;;;16.30;99.90;;;;;;2083582;28;20492;-85
2023/07/16 01:32:07;;;;;;;1.87;1.70;;;16.20;99.90;;;;;;2068051;28;20848;-85
2023/07/16 01:33:10;;;;;;;2.10;1.90;;;16.20;99.90;;;;;;2073063;28;20514;-84
2023/07/16 01:34:11;;;;;;;3.63;1.80;;;16.20;99.90;;;;;;2073586;28;20427;-85
2023/07/16 01:35:13;;;;;;;2.47;2.00;;;16.10;99.90;;;;;;2082951;28;20857;-84
2023/07/16 01:36:14;;;;;;;2.53;1.80;;;16.10;99.90;;;;;;2081731;28;20472;-83
2023/07/16 01:37:15;;;;;;;2.40;1.80;;;16.10;99.90;;;;;;2082491;28;20422;-85
2023/07/16 01:38:18;;;;;;;1.73;1.63;;;16.20;99.90;;;;;;2082488;28;20487;-84
2023/07/16 01:39:20;;;;;;;1.93;1.60;;;16.30;99.90;;;;;;2070581;28;20186;-84
2023/07/16 01:40:20;;;;;;;3.63;1.80;;;16.30;99.90;;;;;;2078420;28;20958;-83
2023/07/16 01:41:21;;;;;;;1.40;1.30;;;16.30;99.90;;;;;;2078930;28;20493;-84
2023/07/16 01:42:22;;;;;;;1.60;1.33;;;16.30;99.90;;;;;;2073409;28;20225;-84
2023/07/16 01:43:22;;;;;;;1.97;1.60;;;16.40;99.90;;;;;;2078360;28;20264;-84
2023/07/16 01:44:23;;;;;;;3.97;2.07;;;16.40;99.90;;;;;;2070722;28;20228;-83
2023/07/16 01:45:24;;;;;;;4.20;2.10;;;16.40;99.90;;;;;;2072160;28;20316;-84
2023/07/16 01:46:25;;;;;;;2.40;1.67;;;16.40;99.90;;;;;;2074124;28;20392;-84
2023/07/16 01:47:29;;;;;;;1.97;1.60;;;16.30;99.90;;;;;;2082495;28;20274;-85
2023/07/16 01:48:35;;;;;;;2.90;1.40;;;16.30;99.90;;;;;;2095883;28;20811;-84
2023/07/16 01:49:36;;;;;;;1.63;1.53;;;16.20;99.90;;;;;;2093353;28;20982;-84
2023/07/16 01:50:37;;;;;;;2.27;1.30;;;16.30;99.90;;;;;;2090468;28;20480;-84
2023/07/16 01:51:38;;;;;;;1.63;1.40;;;16.20;99.90;;;;;;2086458;28;20243;-84
2023/07/16 01:52:38;;;;;;;1.27;1.17;;;16.20;99.90;;;;;;2086589;28;20572;-84
2023/07/16 01:53:40;;;;;;;2.20;1.23;;;16.20;99.90;;;;;;2079074;28;20232;-84
2023/07/16 01:54:41;;;;;;;1.50;1.40;;;16.20;99.90;;;;;;2079282;28;20219;-85
2023/07/16 01:55:41;;;;;;;1.67;1.57;;;16.30;99.90;;;;;;2081518;28;20613;-85
2023/07/16 01:56:42;;;;;;;2.70;1.57;;;16.20;99.90;;;;;;2090765;28;20222;-84
2023/07/16 01:57:43;;;;;;;1.80;1.47;;;16.30;99.90;;;;;;2087210;28;20212;-84
2023/07/16 01:58:43;;;;;;;1.77;1.43;;;16.20;99.90;;;;;;2079538;28;20633;-84
2023/07/16 01:59:46;;;;;;;2.47;1.70;;;16.00;99.90;;;;;;2087207;28;20223;-83
2023/07/16 02:00:48;;;;;;;1.90;1.30;;;15.70;99.90;;;;;;2092187;28;20224;-84
2023/07/16 02:01:48;;;;;;;2.08;1.45;;;15.70;99.90;;;;;;2082415;28;20223;-84
2023/07/16 02:02:49;;;;;;;1.50;1.40;;;15.60;99.90;;;;;;2077599;28;20980;-85
2023/07/16 02:03:50;;;;;;;4.00;1.30;;;15.70;99.90;;;;;;2080594;28;20239;-83
2023/07/16 02:04:50;;;;;;;1.77;1.37;;;15.50;99.90;;;;;;2091217;28;20269;-85
2023/07/16 02:05:51;;;;;;;1.30;1.20;;;15.50;99.90;;;;;;2099760;28;20222;-84
2023/07/16 02:06:52;;;;;;;1.40;1.30;;;15.50;99.90;;;;;;2093300;28;20313;-84
2023/07/16 02:07:52;;;;;;;2.57;1.50;;;15.40;99.90;;;;;;2085611;28;20240;-84
2023/07/16 02:08:53;;;;;;;1.30;1.20;;;15.40;99.90;;;;;;2078549;28;20296;-85
2023/07/16 02:09:54;;;;;;;1.67;1.47;;;15.40;99.90;;;;;;2077764;28;20244;-84
2023/07/16 02:10:55;;;;;;;1.90;1.20;;;15.50;99.90;;;;;;2083736;28;20366;-84
2023/07/16 02:11:55;;;;;;;1.40;1.30;;;15.50;99.90;;;;;;2083240;28;20743;-84
2023/07/16 02:12:56;;;;;;;1.40;1.30;;;15.40;99.90;;;;;;2090367;28;20314;-84
2023/07/16 02:13:57;;;;;;;1.93;1.30;;;15.20;99.90;;;;;;2086235;28;20230;-84
2023/07/16 02:14:57;;;;;;;1.60;1.50;;;15.20;99.90;;;;;;2074048;28;20301;-85
2023/07/16 02:15:58;;;;;;;1.30;1.20;;;15.10;99.90;;;;;;2078374;28;20344;-84
2023/07/16 02:16:59;;;;;;;1.90;1.57;;;15.00;99.90;;;;;;2089089;28;20353;-84
2023/07/16 02:18:00;;;;;;;1.40;1.30;;;15.00;99.90;;;;;;2090091;28;20254;-84
2023/07/16 02:19:00;;;;;;;1.43;1.33;;;15.00;99.90;;;;;;2087651;28;20227;-84
2023/07/16 02:20:01;;;;;;;1.40;1.30;;;14.90;99.90;;;;;;2085752;28;20282;-84
2023/07/16 02:21:02;;;;;;;1.67;1.40;;;14.80;99.90;;;;;;2082158;28;20195;-84
2023/07/16 02:22:03;;;;;;;1.33;1.23;;;14.90;99.90;;;;;;2075882;28;20200;-84
2023/07/16 02:23:04;;;;;;;1.60;1.30;;;14.90;99.90;;;;;;2075768;28;20300;-84
2023/07/16 02:24:05;;;;;;;1.70;1.60;;;14.90;99.90;;;;;;2074095;28;20253;-84
2023/07/16 02:25:06;;;;;;;1.40;1.30;;;14.80;99.90;;;;;;2081173;28;20197;-85
2023/07/16 02:26:07;;;;;;;1.85;1.55;;;14.80;99.90;;;;;;2074618;28;20190;-84
2023/07/16 02:27:08;;;;;;;1.23;1.13;;;14.90;99.90;;;;;;2076160;28;20670;-84
2023/07/16 02:28:08;;;;;;;2.47;1.60;;;15.00;99.90;;;;;;2080916;28;20177;-84
2023/07/16 02:29:09;;;;;;;2.40;1.30;;;15.00;99.90;;;;;;2090726;28;20248;-84
2023/07/16 02:30:10;;;;;;;1.43;1.33;;;14.90;99.90;;;;;;2091365;28;20219;-85
2023/07/16 02:31:10;;;;;;;1.73;1.40;;;14.90;99.90;;;;;;2088160;28;20298;-84
2023/07/16 02:32:11;;;;;;;2.00;1.27;;;14.80;99.90;;;;;;2087836;28;20308;-85
2023/07/16 02:33:12;;;;;;;4.37;1.53;;;14.90;99.90;;;;;;2082971;28;20233;-85
2023/07/16 02:34:13;;;;;;;1.43;1.30;;;14.80;99.90;;;;;;2083353;28;20188;-84
2023/07/16 02:35:15;;;;;;;4.23;1.73;;;14.70;99.90;;;;;;2083929;28;20242;-83
2023/07/16 02:36:16;;;;;;;1.60;1.50;;;14.80;99.90;;;;;;2076359;28;20185;-84
2023/07/16 02:37:16;;;;;;;2.57;1.27;;;14.80;99.90;;;;;;2081836;28;20429;-84
2023/07/16 02:38:17;;;;;;;1.73;1.30;;;14.80;99.90;;;;;;2091988;28;20180;-84
2023/07/16 02:39:18;;;;;;;1.27;1.17;;;14.70;99.90;;;;;;2079575;28;20207;-84
2023/07/16 02:40:18;;;;;;;2.33;1.67;;;14.80;99.90;;;;;;2093827;28;20692;-84
2023/07/16 02:41:19;;;;;;;1.93;1.30;;;14.70;99.90;;;;;;2079236;28;20201;-84
2023/07/16 02:42:20;;;;;;;1.30;1.10;;;14.70;99.90;;;;;;2082995;28;20280;-85
2023/07/16 02:43:20;;;;;;;3.43;1.40;;;14.80;99.90;;;;;;2077597;28;20261;-85
2023/07/16 02:44:21;;;;;;;1.30;1.10;;;14.80;99.90;;;;;;2100021;28;20228;-84
2023/07/16 02:45:22;;;;;;;1.70;1.23;;;14.70;99.90;;;;;;2096589;28;20251;-85
2023/07/16 02:46:22;;;;;;;1.60;1.33;;;14.70;99.90;;;;;;2088882;28;20229;-85
2023/07/16 02:47:23;;;;;;;1.60;1.50;;;14.70;99.90;;;;;;2100044;28;20247;-83
2023/07/16 02:48:24;;;;;;;1.80;1.37;;;14.70;99.90;;;;;;2086208;28;20232;-85
2023/07/16 02:49:25;;;;;;;1.67;1.47;;;14.80;99.90;;;;;;2083859;28;20625;-85
2023/07/16 02:50:25;;;;;;;2.00;1.33;;;14.80;99.90;;;;;;2075797;28;20233;-84
2023/07/16 02:51:26;;;;;;;4.37;1.30;;;14.90;99.90;;;;;;2080399;28;20304;-84
2023/07/16 02:52:27;;;;;;;2.27;1.40;;;14.90;99.90;;;;;;2082907;28;20324;-85
2023/07/16 02:53:27;;;;;;;1.70;1.40;;;14.80;99.90;;;;;;2083497;28;20244;-84
2023/07/16 02:54:28;;;;;;;1.20;1.10;;;14.80;99.90;;;;;;2078271;28;20724;-84
2023/07/16 02:55:29;;;;;;;1.50;1.03;;;14.70;99.90;;;;;;2083542;28;20237;-85
2023/07/16 02:56:30;;;;;;;1.37;1.27;;;14.60;99.90;;;;;;2079912;28;20416;-85
2023/07/16 02:57:30;;;;;;;1.27;1.17;;;14.50;99.90;;;;;;2082955;28;20225;-84
2023/07/16 02:58:31;;;;;;;1.87;1.17;;;14.50;99.90;;;;;;2091713;28;20251;-85
2023/07/16 02:59:32;;;;;;;1.57;1.20;;;14.50;99.90;;;;;;2083349;28;20256;-84
2023/07/16 03:00:33;;;;;;;2.07;1.50;;;14.60;99.90;;;;;;2088745;28;20216;-84
2023/07/16 03:01:34;;;;;;;1.50;1.40;;;14.60;99.90;;;;;;2091148;28;20231;-84
2023/07/16 03:02:34;;;;;;;1.67;1.47;;;14.70;99.90;;;;;;2095437;28;20251;-84
2023/07/16 03:03:35;;;;;;;2.10;1.13;;;14.70;99.90;;;;;;2091655;28;20334;-84
2023/07/16 03:04:36;;;;;;;2.27;1.40;;;14.90;99.90;;;;;;2091603;28;20224;-84
2023/07/16 03:05:36;;;;;;;2.07;1.30;;;14.90;99.90;;;;;;2093135;28;20224;-85
2023/07/16 03:06:37;;;;;;;1.23;1.13;;;15.00;99.90;;;;;;2083839;28;20267;-84
2023/07/16 03:07:38;;;;;;;1.57;1.40;;;14.90;99.90;;;;;;2075446;28;20513;-84
2023/07/16 03:08:38;;;;;;;1.60;1.30;;;15.00;99.90;;;;;;2083898;28;20225;-85
2023/07/16 03:09:39;;;;;;;2.20;1.10;;;15.00;99.90;;;;;;2089426;28;20252;-85
2023/07/16 03:10:40;;;;;;;1.40;1.30;;;15.00;99.90;;;;;;2087956;28;20844;-84
2023/07/16 03:11:41;;;;;;;1.80;1.00;;;15.00;99.90;;;;;;2084294;28;20240;-85
2023/07/16 03:12:41;;;;;;;1.30;1.20;;;15.00;99.90;;;;;;2083460;28;20820;-85
2023/07/16 03:13:42;;;;;;;2.20;1.37;;;15.00;99.90;;;;;;2083717;28;20328;-84
2023/07/16 03:14:43;;;;;;;1.40;1.30;;;15.00;99.90;;;;;;2080885;28;20262;-85
2023/07/16 03:15:44;;;;;;;1.83;1.30;;;15.20;99.90;;;;;;2083052;28;20221;-85
2023/07/16 03:16:44;;;;;;;3.10;1.30;;;15.30;99.90;;;;;;2081439;28;20605;-84
2023/07/16 03:17:45;;;;;;;1.47;1.27;;;15.20;99.90;;;;;;2086453;28;20209;-84
2023/07/16 03:18:46;;;;;;;1.73;1.60;;;15.20;99.90;;;;;;2092860;28;20219;-83
2023/07/16 03:19:46;;;;;;;1.53;1.40;;;15.20;99.90;;;;;;2083152;28;20219;-85
2023/07/16 03:20:47;;;;;;;1.37;1.27;;;15.10;99.90;;;;;;2074633;28;20233;-84
2023/07/16 03:21:49;;;;;;;2.10;1.60;;;15.20;99.90;;;;;;2075162;28;20229;-84
2023/07/16 03:22:50;;;;;;;3.30;1.58;;;15.20;99.90;;;;;;2091575;28;20232;-84
2023/07/16 03:23:51;;;;;;;2.13;1.20;;;15.20;99.90;;;;;;2087517;28;20614;-84
2023/07/16 03:24:51;;;;;;;2.00;1.40;;;15.20;99.90;;;;;;2079724;28;20214;-85
2023/07/16 03:25:52;;;;;;;1.33;1.10;;;15.20;99.90;;;;;;2088331;28;20212;-84
2023/07/16 03:26:53;;;;;;;1.33;1.23;;;15.20;99.90;;;;;;2083385;28;20233;-84
2023/07/16 03:27:54;;;;;;;2.08;1.30;;;15.20;99.90;;;;;;2075319;28;20273;-84
2023/07/16 03:28:55;;;;;;;2.17;1.50;;;15.20;99.90;;;;;;2074853;28;20232;-84
2023/07/16 03:29:55;;;;;;;1.40;1.30;;;15.20;99.90;;;;;;2081959;28;20223;-85
2023/07/16 03:30:56;;;;;;;1.37;1.27;;;15.30;99.90;;;;;;2087503;28;20231;-84
2023/07/16 03:31:57;;;;;;;1.30;1.20;;;15.30;99.90;;;;;;2074465;28;20230;-85
2023/07/16 03:32:57;;;;;;;3.20;1.43;;;15.20;99.90;;;;;;2083622;28;20686;-85
2023/07/16 03:33:58;;;;;;;1.07;0.97;;;15.20;99.90;;;;;;2089362;28;20314;-84
2023/07/16 03:34:59;;;;;;;1.30;1.20;;;15.20;99.90;;;;;;2092645;28;20243;-85
2023/07/16 03:35:59;;;;;;;1.50;1.20;;;15.20;99.90;;;;;;2082824;28;20252;-85
2023/07/16 03:37:00;;;;;;;1.30;1.20;;;15.20;99.90;;;;;;2075352;28;20914;-84
2023/07/16 03:38:01;;;;;;;2.43;1.50;;;15.30;99.90;;;;;;2073363;28;20194;-84
2023/07/16 03:39:02;;;;;;;1.30;1.20;;;15.20;99.90;;;;;;2070766;28;20186;-83
2023/07/16 03:40:14;;;;;;;1.30;1.20;;;15.20;99.90;;;;;;2081415;28;20185;-85
2023/07/16 03:41:15;;;;;;;2.85;1.40;;;15.30;99.90;;;;;;2093456;28;20183;-85
2023/07/16 03:42:16;;;;;;;2.00;1.50;;;15.50;99.90;;;;;;2091380;28;20172;-85
2023/07/16 03:43:17;;;;;;;1.57;1.47;;;15.40;99.90;;;;;;2090455;28;20216;-85
2023/07/16 03:44:17;;;;;;;2.13;1.42;;;15.30;99.90;;;;;;2083196;28;20633;-84
2023/07/16 03:45:18;;;;;;;1.40;1.30;;;15.10;99.90;;;;;;2083101;28;20181;-84
2023/07/16 03:46:19;;;;;;;2.57;1.77;;;15.10;99.90;;;;;;2093673;28;20184;-84
2023/07/16 03:47:20;;;;;;;1.50;1.30;;;15.20;99.90;;;;;;2087064;28;20172;-85
2023/07/16 03:48:21;;;;;;;1.63;1.47;;;15.30;99.90;;;;;;2083520;28;20748;-85
2023/07/16 03:49:21;;;;;;;1.70;1.53;;;15.30;99.90;;;;;;2090112;28;20714;-85
2023/07/16 03:50:22;;;;;;;1.90;1.70;;;15.30;99.90;;;;;;2091625;28;20227;-85
2023/07/16 03:51:23;;;;;;;4.90;1.60;;;15.20;99.90;;;;;;2091426;28;20232;-85
2023/07/16 03:52:24;;;;;;;1.60;1.50;;;15.30;99.90;;;;;;2099237;28;20227;-85
2023/07/16 03:53:25;;;;;;;1.80;1.50;;;15.20;99.90;;;;;;2082926;28;20754;-83
2023/07/16 03:54:26;;;;;;;1.63;1.40;;;15.20;99.90;;;;;;2082570;28;20469;-85
2023/07/16 03:55:26;;;;;;;1.80;1.47;;;15.00;99.90;;;;;;2079164;28;20296;-84
2023/07/16 03:56:27;;;;;;;2.00;1.80;;;14.90;99.90;;;;;;2080028;28;20244;-85
2023/07/16 03:57:28;;;;;;;1.63;1.53;;;14.80;99.90;;;;;;2083426;28;20647;-84
2023/07/16 03:58:29;;;;;;;2.93;1.40;;;14.90;99.90;;;;;;2075029;28;20279;-84
2023/07/16 03:59:30;;;;;;;2.43;1.53;;;14.80;99.90;;;;;;2075608;28;20462;-85
2023/07/16 04:00:31;;;;;;;1.90;1.70;;;14.80;99.90;;;;;;2085278;28;20252;-84
2023/07/16 04:01:32;;;;;;;3.13;1.52;;;15.00;99.90;;;;;;2099071;28;20224;-84
2023/07/16 04:02:33;;;;;;;2.10;1.90;;;15.10;99.90;;;;;;2082614;28;20238;-83
2023/07/16 04:03:33;;;;;;;2.73;1.77;;;15.10;99.90;;;;;;2078630;28;20244;-84
2023/07/16 04:04:34;;;;;;;2.50;1.60;;;15.00;99.90;;;;;;2099150;28;20212;-84
2023/07/16 04:05:35;;;;;;;1.40;1.30;;;15.00;99.90;;;;;;2084378;28;20233;-85
2023/07/16 04:06:36;;;;;;;3.00;1.77;;;15.10;99.90;;;;;;2082628;28;20319;-84
2023/07/16 04:07:36;;;;;;;1.50;1.40;;;15.20;99.90;;;;;;2099029;28;20235;-85
2023/07/16 04:08:38;;;;;;;2.53;1.67;;;15.10;99.90;;;;;;2084896;28;20236;-85
2023/07/16 04:09:39;;;;;;;2.80;1.80;;;15.00;99.90;;;;;;2089751;28;20238;-85
2023/07/16 04:10:39;;;;;;;3.05;1.50;;;14.90;99.90;;;;;;2080165;28;20225;-84
2023/07/16 04:11:40;;;;;;;2.50;1.60;;;14.90;99.90;;;;;;2074449;28;20257;-84
2023/07/16 04:12:41;;;;;;;4.63;1.70;;;15.10;99.90;;;;;;2082683;28;20239;-85
2023/07/16 04:13:42;;;;;;;2.50;1.53;;;15.10;99.90;;;;;;2079532;28;20283;-84
2023/07/16 04:14:42;;;;;;;6.30;1.93;;;15.10;99.90;;;;;;2075246;28;20226;-85
2023/07/16 04:15:43;;;;;;;3.90;1.57;;;15.10;99.90;;;;;;2079232;28;20232;-84
2023/07/16 04:16:44;;;;;;;1.97;1.77;;;15.20;99.90;;;;;;2079452;28;20252;-84
2023/07/16 04:17:44;;;;;;;3.63;1.77;;;15.20;99.90;;;;;;2087650;28;20224;-84
2023/07/16 04:18:45;;;;;;;2.20;1.43;;;15.20;99.90;;;;;;2099596;28;20619;-84
2023/07/16 04:19:46;;;;;;;1.57;1.47;;;15.20;99.90;;;;;;2092095;28;20228;-85
2023/07/16 04:20:46;;;;;;;2.03;1.67;;;15.20;99.90;;;;;;2088445;28;20220;-85
2023/07/16 04:21:47;;;;;;;2.20;2.00;;;15.30;99.90;;;;;;2089251;28;20307;-85
2023/07/16 04:22:48;;;;;;;3.63;1.88;;;15.20;99.90;;;;;;2090040;28;20215;-83
2023/07/16 04:23:49;;;;;;;2.30;1.50;;;15.20;99.90;;;;;;2087824;28;20227;-83
2023/07/16 04:24:49;;;;;;;2.40;1.73;;;15.20;99.90;;;;;;2078576;28;20212;-84
2023/07/16 04:25:55;;;;;;;1.93;1.47;;;15.20;99.90;;;;;;2074732;28;20771;-82
2023/07/16 04:26:55;;;;;;;1.60;1.38;;;15.20;99.90;;;;;;2083679;28;20702;-84
2023/07/16 04:27:56;;;;;;;2.30;1.40;;;15.20;99.90;;;;;;2080014;28;20245;-83
2023/07/16 04:28:57;;;;;;;2.67;1.97;;;15.00;99.90;;;;;;2091141;28;20247;-83
2023/07/16 04:29:57;;;;;;;10.57;1.80;;;14.90;99.90;;;;;;2083609;28;20266;-83
2023/07/16 04:30:58;;;;;;;1.90;1.60;;;14.90;99.90;;;;;;2075901;28;20279;-83
2023/07/16 04:31:59;;;;;;;1.70;1.47;;;14.80;99.90;;;;;;2083126;28;20255;-83
2023/07/16 04:33:00;;;;;;;3.37;1.90;;;14.70;99.90;;;;;;2076334;28;20228;-83
2023/07/16 04:34:00;;;;;;;1.60;1.50;;;14.80;99.90;;;;;;2082471;28;20668;-82
2023/07/16 04:35:01;;;;;;;1.67;1.50;;;14.80;99.90;;;;;;2078078;28;20260;-83
2023/07/16 04:36:02;;;;;;;2.77;1.73;;;14.60;99.90;;;;;;2078684;28;20671;-83
2023/07/16 04:37:03;;;;;;;1.77;1.50;;;14.60;99.90;;;;;;2083277;28;20572;-83
2023/07/16 04:38:03;;;;;;;3.97;1.67;;;14.60;99.90;;;;;;2088054;28;20185;-83
2023/07/16 04:39:04;;;;;;;3.53;1.43;;;14.60;99.90;;;;;;2084470;28;20292;-83
2023/07/16 04:40:06;;;;;;;2.03;1.43;;;14.70;99.90;;;;;;2080348;28;20223;-82
2023/07/16 04:41:07;;;;;;;2.40;1.50;;;14.70;99.90;;;;;;2075779;28;20688;-83
2023/07/16 04:42:08;;;;;;;2.03;1.40;;;14.70;99.90;;;;;;2074704;28;20181;-84
2023/07/16 04:43:08;;;;;;;3.50;1.70;;;14.60;99.90;;;;;;2090632;28;20223;-84
2023/07/16 04:44:09;;;;;;;5.63;1.50;;;14.60;99.90;;;;;;2090395;28;20189;-84
2023/07/16 04:45:10;;;;;;;3.63;1.50;;;14.50;99.90;;;;;;2075409;28;20237;-86
2023/07/16 04:46:11;;;;;;;6.80;1.30;;;14.50;99.90;;;;;;2093879;28;20192;-85
2023/07/16 04:47:12;;;;;;;1.70;1.48;;;14.50;99.90;;;;;;2087861;28;20192;-84
2023/07/16 04:48:13;;;;;;;1.70;1.37;;;14.60;99.90;;;;;;2083263;28;20177;-83
2023/07/16 04:49:14;;;;;;;2.40;1.33;;;14.70;99.90;;;;;;2079556;28;20204;-84
2023/07/16 04:50:14;;;;;;;2.00;1.60;;;14.70;99.90;;;;;;2075328;28;20201;-85
2023/07/16 04:51:15;;;;;;;2.83;1.40;;;14.80;99.90;;;;;;2091530;28;20219;-85
2023/07/16 04:52:16;;;;;;;2.20;1.50;;;14.70;99.90;;;;;;2080033;28;20181;-84
2023/07/16 04:53:18;;;;;;;2.30;1.40;;;14.70;99.90;;;;;;2083050;28;20212;-84
2023/07/16 04:54:19;;;;;;;2.13;1.60;;;14.70;99.90;;;;;;2082713;28;20196;-84
2023/07/16 04:55:19;;;;;;;1.20;1.10;;;14.80;99.90;;;;;;2075072;28;20502;-84
2023/07/16 04:56:20;;;;;;;3.03;1.50;;;14.70;99.90;;;;;;2077048;28;21437;-84
2023/07/16 04:57:21;;;;;;;2.67;1.50;;;14.80;99.90;;;;;;2086977;28;20251;-84
2023/07/16 04:58:21;;;;;;;1.73;1.60;;;14.80;99.90;;;;;;2089800;28;20311;-85
2023/07/16 04:59:22;;;;;;;3.17;1.33;;;14.70;99.90;;;;;;2083011;28;20240;-84
2023/07/16 05:00:23;;;;;;;3.87;1.63;;;14.70;99.90;;;;;;2074574;28;20280;-84
2023/07/16 05:01:25;;;;;;;3.47;1.47;;;14.70;99.90;;;;;;2078388;28;20229;-84
2023/07/16 05:02:25;;;;;;;2.10;1.40;;;14.70;99.90;;;;;;2082161;28;20224;-84
2023/07/16 05:03:26;;;;;;;6.60;2.10;;;14.60;99.90;;;;;;2083232;28;20248;-84
2023/07/16 05:04:27;;;;;;;2.67;1.77;;;14.60;99.90;;;;;;2097355;28;20232;-83
2023/07/16 05:05:27;;;;;;;2.40;1.40;;;14.60;99.90;;;;;;2097248;28;20235;-85
2023/07/16 05:06:28;;;;;;;2.63;1.53;;;14.70;99.90;;;;;;2088043;28;20240;-84
2023/07/16 05:07:29;;;;;;;1.67;1.47;;;14.70;99.90;;;;;;2090412;28;20608;-84
2023/07/16 05:08:29;;;;;;;2.43;1.63;;;14.80;99.90;;;;;;2090712;28;20249;-84
2023/07/16 05:09:30;;;;;;;2.90;1.80;;;14.90;99.90;;;;;;2091970;28;20253;-85
2023/07/16 05:10:31;;;;;;;2.03;1.70;;;14.90;99.90;;;;;;2089817;28;20232;-84
2023/07/16 05:11:33;;;;;;;2.17;1.57;;;15.00;99.90;;;;;;2081917;28;20472;-84
2023/07/16 05:12:33;;;;;;;3.25;1.60;;;15.00;99.90;;;;;;2087976;28;20791;-84
2023/07/16 05:13:34;;;;;;;7.27;1.80;;;15.00;99.90;;;;;;2085984;28;20232;-84
2023/07/16 05:14:47;;;;;;;4.73;1.93;;;14.80;99.90;;;;;;2075551;28;20232;-84
2023/07/16 05:15:48;;;;;;;3.65;1.67;;;14.70;99.90;;;;;;2076970;28;20364;-84
2023/07/16 05:16:48;;;;;;;3.40;1.77;;;14.50;99.90;;;;;;2074360;28;20253;-84
2023/07/16 05:17:49;;;;;;;2.70;1.90;;;14.50;99.90;;;;;;2077553;28;20217;-84
2023/07/16 05:18:50;;;;;;;2.07;1.80;;;14.50;99.90;;;;;;2086700;28;20220;-84
2023/07/16 05:19:50;;;;;;;3.63;1.60;;;14.50;99.90;;;;;;2082230;28;20326;-85
2023/07/16 05:20:51;;;;;;;4.00;1.80;;;14.40;99.90;;;;;;2089884;28;20239;-84
2023/07/16 05:21:52;;;;;;;4.03;2.13;;;14.50;99.90;;;;;;2086508;28;20245;-83